Time;durP1;ratioP1;P1;durP2;ratioP2;P2;SDS_P1;SDS_P2;PMS_P1;PMS_P2;Temp;Humidity;BMP_temperature;BMP_pressure;BME280_temperature;BME280_humidity;BME280_pressure;Samples;Min_cycle;Max_cycle;Signal;HPM_P1;HPM_P2
2021/04/14 00:02:21;;;;;;;65.82;43.00;;;;;;;11.35;100.00;96636.44;5024425;28;20507;-62
2021/04/14 00:04:47;;;;;;;65.35;43.00;;;;;;;10.86;100.00;96591.72;5024935;28;20515;-62
2021/04/14 00:07:16;;;;;;;77.30;47.25;;;;;;;11.20;100.00;96643.84;5025720;28;20466;-62
2021/04/14 00:09:42;;;;;;;76.38;47.85;;;;;;;10.83;100.00;96589.72;5026597;28;20488;-62
2021/04/14 00:12:10;;;;;;;78.13;48.25;;;;;;;10.75;100.00;96596.38;5026372;28;20037;-64
2021/04/14 00:14:36;;;;;;;89.25;51.58;;;;;;;11.04;100.00;96648.06;5026520;28;20619;-62
2021/04/14 00:17:02;;;;;;;89.28;52.08;;;;;;;11.04;100.00;96632.22;5025484;28;20056;-62
2021/04/14 00:19:29;;;;;;;100.38;51.75;;;;;;;11.09;100.00;96644.94;5026510;28;20037;-63
2021/04/14 00:21:55;;;;;;;84.40;48.13;;;;;;;10.73;100.00;96590.41;5025581;28;20030;-62
2021/04/14 00:24:21;;;;;;;93.85;49.50;;;;;;;10.92;100.00;96609.56;5025365;28;20034;-63
2021/04/14 00:26:46;;;;;;;95.45;52.97;;;;;;;9.73;100.00;96463.25;5025665;28;20116;-63
2021/04/14 00:29:12;;;;;;;103.88;55.08;;;;;;;10.92;100.00;96640.84;5026377;28;20400;-62
2021/04/14 00:31:38;;;;;;;114.15;57.90;;;;;;;10.90;100.00;96621.03;5025817;28;20037;-62
2021/04/14 00:34:13;;;;;;;120.93;62.10;;;;;;;11.11;100.00;96642.59;5025869;28;20041;-63
2021/04/14 00:36:42;;;;;;;130.07;66.43;;;;;;;11.10;100.00;96636.25;5025262;28;20075;-63
2021/04/14 00:39:11;;;;;;;92.85;48.70;;;;;;;10.96;100.00;96622.28;5040996;28;20451;-65
2021/04/14 00:41:37;;;;;;;83.38;42.92;;;;;;;10.98;100.00;96644.84;5024717;28;20170;-64
2021/04/14 00:44:03;;;;;;;65.72;35.13;;;;;;;11.04;100.00;96653.59;5025760;28;20509;-63
2021/04/14 00:46:29;;;;;;;65.28;33.85;;;;;;;10.60;100.00;96590.69;5025493;28;20112;-63
2021/04/14 00:48:54;;;;;;;59.65;31.73;;;;;;;10.66;100.00;96586.38;5026136;28;20090;-62
2021/04/14 00:51:21;;;;;;;66.22;32.50;;;;;;;11.02;100.00;96622.72;5023568;28;20036;-63
2021/04/14 00:53:47;;;;;;;63.42;31.45;;;;;;;11.07;100.00;96614.03;5025600;28;20038;-63
2021/04/14 00:56:13;;;;;;;56.17;29.65;;;;;;;11.17;100.00;96638.28;5023335;28;20037;-63
2021/04/14 00:58:39;;;;;;;56.25;30.63;;;;;;;10.75;100.00;96554.81;5023816;28;20464;-63
2021/04/14 01:01:05;;;;;;;57.75;30.15;;;;;;;11.28;100.00;96608.66;5025005;28;20047;-63
2021/04/14 01:03:34;;;;;;;55.17;29.98;;;;;;;11.17;100.00;96591.16;5040984;28;20041;-63
2021/04/14 01:06:07;;;;;;;52.88;30.30;;;;;;;11.32;100.00;96612.25;5023874;28;20116;-63
2021/04/14 01:08:34;;;;;;;65.25;35.53;;;;;;;11.25;100.00;96609.44;5024017;28;20064;-63
2021/04/14 01:10:59;;;;;;;54.25;30.50;;;;;;;11.26;100.00;96608.25;5024717;28;20034;-64
2021/04/14 01:13:25;;;;;;;64.20;36.50;;;;;;;11.30;100.00;96603.53;5025471;28;20037;-64
2021/04/14 01:15:50;;;;;;;65.55;37.55;;;;;;;11.37;100.00;96606.34;5025046;28;20029;-64
2021/04/14 01:18:23;;;;;;;54.47;32.22;;;;;;;10.41;100.00;96469.09;5025361;28;20482;-65
2021/04/14 01:20:49;;;;;;;57.92;34.78;;;;;;;11.30;100.00;96609.06;5023728;28;20111;-64
2021/04/14 01:23:16;;;;;;;81.30;44.17;;;;;;;11.31;100.00;96603.16;5025504;28;20124;-64
2021/04/14 01:25:42;;;;;;;78.60;43.03;;;;;;;11.33;100.00;96608.31;5022712;28;20164;-64
2021/04/14 01:28:12;;;;;;;68.03;37.10;;;;;;;10.94;100.00;96590.59;5025029;28;20044;-64
2021/04/14 01:30:39;;;;;;;57.35;33.65;;;;;;;10.83;100.00;96550.91;5024382;28;20029;-64
2021/04/14 01:33:05;;;;;;;47.05;29.15;;;;;;;11.14;100.00;96600.25;5024995;28;20091;-64
2021/04/14 01:35:30;;;;;;;51.97;31.20;;;;;;;11.25;100.00;96607.47;5017229;28;20077;-64
2021/04/14 01:37:56;;;;;;;42.45;24.67;;;;;;;11.23;100.00;96603.47;5020236;28;20087;-62
2021/04/14 01:40:23;;;;;;;33.92;20.00;;;;;;;11.08;100.00;96604.56;5004289;28;20041;-62
2021/04/14 01:42:49;;;;;;;34.92;19.75;;;;;;;10.76;100.00;96556.38;5019591;28;20049;-62
2021/04/14 01:45:18;;;;;;;33.15;19.65;;;;;;;11.16;100.00;96612.53;5004387;28;20030;-64
2021/04/14 01:47:43;;;;;;;37.25;19.73;;;;;;;10.55;100.00;96546.72;5019650;28;20037;-62
2021/04/14 01:50:09;;;;;;;35.03;19.85;;;;;;;10.97;100.00;96610.00;5003135;28;20045;-63
2021/04/14 01:52:35;;;;;;;38.15;21.05;;;;;;;10.68;100.00;96592.31;5004664;28;20034;-62
2021/04/14 01:55:01;;;;;;;38.75;20.70;;;;;;;10.88;100.00;96617.03;5005302;28;20037;-62
2021/04/14 01:57:26;;;;;;;37.60;20.10;;;;;;;10.99;100.00;96602.09;5004014;28;20413;-63
2021/04/14 01:59:52;;;;;;;35.25;20.08;;;;;;;11.04;100.00;96598.16;5003208;28;20223;-63
2021/04/14 02:02:19;;;;;;;37.35;19.10;;;;;;;10.58;100.00;96532.13;5004092;28;20034;-63
2021/04/14 02:04:44;;;;;;;41.78;23.67;;;;;;;11.07;100.00;96608.50;5004669;28;20420;-63
2021/04/14 02:07:10;;;;;;;53.65;27.55;;;;;;;11.01;100.00;96601.72;5003957;28;20030;-63
2021/04/14 02:09:36;;;;;;;44.78;24.35;;;;;;;11.04;100.00;96587.88;5002916;28;20038;-64
2021/04/14 02:12:02;;;;;;;40.75;21.60;;;;;;;10.96;100.00;96580.69;5002412;28;20428;-63
2021/04/14 02:14:28;;;;;;;50.53;25.38;;;;;;;11.10;100.00;96602.97;5004894;28;20456;-63
2021/04/14 02:16:54;;;;;;;53.25;27.25;;;;;;;11.03;100.00;96597.41;5001897;28;20034;-62
2021/04/14 02:19:19;;;;;;;46.83;25.98;;;;;;;10.24;100.00;96466.94;5004084;28;20030;-63
2021/04/14 02:21:45;;;;;;;32.95;19.65;;;;;;;11.25;100.00;96590.84;5004003;28;20496;-63
2021/04/14 02:24:10;;;;;;;30.83;18.88;;;;;;;11.28;100.00;96586.47;5004631;28;20036;-62
2021/04/14 02:26:36;;;;;;;29.10;19.05;;;;;;;11.20;100.00;96591.19;5003609;28;20060;-62
2021/04/14 02:29:01;;;;;;;32.15;19.88;;;;;;;11.28;100.00;96580.94;5004252;28;20543;-63
2021/04/14 02:31:31;;;;;;;29.65;18.13;;;;;;;11.24;100.00;96567.03;5004282;28;20045;-62
2021/04/14 02:33:59;;;;;;;51.42;33.67;;;;;;;10.33;100.00;96508.94;5004137;28;20501;-62
2021/04/14 02:36:24;;;;;;;54.42;36.65;;;;;;;10.46;100.00;96513.00;5016564;28;20041;-62
2021/04/14 02:38:51;;;;;;;59.20;39.70;;;;;;;10.87;100.00;96565.59;5023851;28;20100;-62
2021/04/14 02:41:16;;;;;;;52.67;33.13;;;;;;;10.91;100.00;96571.97;5021283;28;20148;-62
2021/04/14 02:43:42;;;;;;;48.22;30.08;;;;;;;10.90;100.00;96573.94;5021923;28;20164;-61
2021/04/14 02:46:07;;;;;;;42.03;25.20;;;;;;;10.90;100.00;96581.44;5023245;28;20038;-62
2021/04/14 02:48:33;;;;;;;31.83;22.10;;;;;;;10.86;100.00;96569.53;5023774;28;20037;-61
2021/04/14 02:50:58;;;;;;;26.40;18.63;;;;;;;10.95;100.00;96589.41;5021385;28;20025;-62
2021/04/14 02:53:24;;;;;;;38.70;25.40;;;;;;;11.03;100.00;96579.97;5023754;28;20034;-61
2021/04/14 02:55:49;;;;;;;61.65;35.97;;;;;;;10.73;100.00;96548.84;5037763;28;20041;-61
2021/04/14 02:58:15;;;;;;;37.85;25.75;;;;;;;10.90;100.00;96581.44;5021759;28;20034;-61
2021/04/14 03:00:40;;;;;;;41.92;26.40;;;;;;;10.89;100.00;96571.53;5021358;28;20512;-62
2021/04/14 03:03:06;;;;;;;32.70;21.52;;;;;;;10.82;100.00;96568.69;5023586;28;20421;-62
2021/04/14 03:05:34;;;;;;;26.38;18.60;;;;;;;10.78;100.00;96578.97;5021810;28;20428;-62
2021/04/14 03:08:00;;;;;;;30.15;20.40;;;;;;;10.43;100.00;96518.53;5023267;28;20029;-62
2021/04/14 03:10:26;;;;;;;30.35;18.38;;;;;;;10.82;100.00;96569.50;5022824;28;20040;-62
2021/04/14 03:12:52;;;;;;;26.35;16.75;;;;;;;10.29;100.00;96499.81;5023574;28;20349;-62
2021/04/14 03:15:24;;;;;;;29.88;18.95;;;;;;;10.37;100.00;96520.84;5022999;28;20033;-63
2021/04/14 03:17:51;;;;;;;52.00;28.13;;;;;;;10.78;100.00;96576.97;5023612;28;20034;-63
2021/04/14 03:20:17;;;;;;;55.67;29.67;;;;;;;10.62;100.00;96559.84;5023151;28;20102;-64
2021/04/14 03:22:43;;;;;;;33.50;20.88;;;;;;;10.44;100.00;96581.81;5023708;28;20070;-63
2021/04/14 03:25:09;;;;;;;31.90;20.85;;;;;;;10.61;100.00;96585.94;5022983;28;20065;-63
2021/04/14 03:27:35;;;;;;;33.92;19.65;;;;;;;10.28;100.00;96539.75;5023200;28;20029;-63
2021/04/14 03:30:00;;;;;;;30.55;19.77;;;;;;;10.44;100.00;96565.22;5023333;28;20036;-63
2021/04/14 03:32:26;;;;;;;33.65;18.90;;;;;;;10.60;100.00;96587.94;5022841;28;20034;-63
2021/04/14 03:34:51;;;;;;;32.47;20.40;;;;;;;10.58;100.00;96567.31;5020413;28;20033;-63
2021/04/14 03:37:17;;;;;;;33.80;23.15;;;;;;;10.61;100.00;96564.56;5001283;28;20497;-63
2021/04/14 03:39:42;;;;;;;33.25;21.48;;;;;;;10.33;100.00;96564.31;5004093;28;20049;-63
2021/04/14 03:42:08;;;;;;;39.33;23.65;;;;;;;9.93;100.00;96517.19;5001383;28;20049;-63
2021/04/14 03:44:36;;;;;;;52.10;28.88;;;;;;;10.46;100.00;96576.69;5003633;28;20116;-63
2021/04/14 03:47:02;;;;;;;64.35;35.67;;;;;;;10.52;100.00;96572.41;5002902;28;20030;-62
2021/04/14 03:49:28;;;;;;;47.53;28.88;;;;;;;10.47;100.00;96578.28;5003646;28;20038;-64
2021/04/14 03:51:54;;;;;;;43.63;28.60;;;;;;;9.78;100.00;96454.63;5002915;28;20061;-63
2021/04/14 03:54:20;;;;;;;43.47;28.38;;;;;;;10.43;100.00;96574.69;5017909;28;20530;-64
2021/04/14 03:56:45;;;;;;;40.42;25.75;;;;;;;10.02;100.00;96512.16;5001474;28;20094;-64
2021/04/14 03:59:10;;;;;;;31.55;21.00;;;;;;;10.30;100.00;96570.63;5004288;28;20033;-64
2021/04/14 04:01:36;;;;;;;35.35;21.65;;;;;;;9.85;100.00;96496.16;5004916;28;20204;-64
2021/04/14 04:04:01;;;;;;;43.33;23.67;;;;;;;9.90;100.00;96517.97;5005314;28;20057;-64
2021/04/14 04:06:27;;;;;;;37.60;22.92;;;;;;;10.11;100.00;96565.28;5004846;28;20037;-64
2021/04/14 04:08:53;;;;;;;31.50;19.10;;;;;;;9.82;100.00;96516.28;5006754;28;20038;-63
2021/04/14 04:11:20;;;;;;;39.78;21.30;;;;;;;9.64;100.00;96520.81;5004435;28;20048;-64
2021/04/14 04:13:47;;;;;;;40.72;24.30;;;;;;;9.79;100.00;96560.50;5007020;28;20033;-63
2021/04/14 04:16:13;;;;;;;36.85;22.58;;;;;;;9.24;100.00;96490.31;5004434;28;20084;-63
2021/04/14 04:18:38;;;;;;;34.10;21.25;;;;;;;9.86;100.00;96566.94;5006549;28;20042;-63
2021/04/14 04:21:06;;;;;;;33.38;18.42;;;;;;;10.05;100.00;96586.09;5004420;28;20069;-64
2021/04/14 04:23:32;;;;;;;32.72;17.70;;;;;;;9.83;100.00;96550.28;5006235;28;20084;-66
2021/04/14 04:25:58;;;;;;;25.90;17.52;;;;;;;10.14;100.00;96583.88;5020559;28;20029;-65
2021/04/14 04:28:24;;;;;;;21.48;14.75;;;;;;;10.22;100.00;96587.50;5004682;28;20045;-63
2021/04/14 04:30:50;;;;;;;28.25;17.23;;;;;;;9.87;100.00;96568.50;5004457;28;20132;-63
2021/04/14 04:33:17;;;;;;;41.88;23.40;;;;;;;10.16;100.00;96614.72;5006808;28;20038;-63
2021/04/14 04:35:43;;;;;;;44.00;26.98;;;;;;;10.15;100.00;96618.66;5012331;28;20021;-63
2021/04/14 04:38:08;;;;;;;25.02;17.83;;;;;;;10.22;100.00;96620.72;5024357;28;20033;-63
2021/04/14 04:40:34;;;;;;;25.20;16.80;;;;;;;10.25;100.00;96619.97;5025102;28;20025;-63
2021/04/14 04:43:00;;;;;;;24.30;16.23;;;;;;;10.21;100.00;96617.16;5025320;28;20049;-64
2021/04/14 04:45:28;;;;;;;33.05;21.45;;;;;;;10.16;100.00;96620.25;5025209;28;20048;-63
2021/04/14 04:47:54;;;;;;;31.33;19.85;;;;;;;10.17;100.00;96616.34;5024323;28;20030;-63
2021/04/14 04:50:26;;;;;;;33.85;21.13;;;;;;;10.22;100.00;96613.22;5025978;28;20039;-63
2021/04/14 04:52:52;;;;;;;26.77;18.40;;;;;;;9.86;100.00;96594.59;5041016;28;20033;-63
2021/04/14 04:55:17;;;;;;;23.98;13.70;;;;;;;9.84;100.00;96602.47;5024937;28;20483;-63
2021/04/14 04:57:42;;;;;;;15.43;10.43;;;;;;;10.08;100.00;96624.13;5025550;28;20087;-63
2021/04/14 05:00:08;;;;;;;16.52;11.23;;;;;;;10.09;100.00;96625.72;5023279;28;20128;-63
2021/04/14 05:02:34;;;;;;;10.20;7.35;;;;;;;9.36;100.00;96503.88;5025400;28;20036;-63
2021/04/14 05:05:00;;;;;;;7.70;5.30;;;;;;;9.98;99.95;96602.63;5025805;28;20037;-63
2021/04/14 05:07:25;;;;;;;6.90;4.43;;;;;;;9.95;99.98;96603.38;5025191;28;20120;-63
2021/04/14 05:09:50;;;;;;;7.07;5.15;;;;;;;10.09;100.00;96631.25;5025443;28;20144;-63
2021/04/14 05:12:16;;;;;;;7.20;4.72;;;;;;;9.97;100.00;96628.72;5024631;28;20516;-63
2021/04/14 05:14:43;;;;;;;22.40;12.18;;;;;;;9.98;100.00;96641.38;5024886;28;20116;-63
2021/04/14 05:17:09;;;;;;;18.90;9.65;;;;;;;10.03;100.00;96627.19;5024463;28;20502;-62
2021/04/14 05:19:34;;;;;;;9.93;6.47;;;;;;;10.03;100.00;96632.75;5023784;28;20033;-63
2021/04/14 05:22:00;;;;;;;7.10;4.93;;;;;;;10.07;100.00;96622.53;5024376;28;20488;-64
2021/04/14 05:24:25;;;;;;;7.70;5.30;;;;;;;9.72;100.00;96571.50;5040356;28;20127;-63
2021/04/14 05:26:51;;;;;;;7.60;5.13;;;;;;;10.13;100.00;96626.53;5022870;28;20489;-63
2021/04/14 05:29:16;;;;;;;12.40;8.32;;;;;;;9.37;100.00;96513.78;5023883;28;20673;-64
2021/04/14 05:31:42;;;;;;;12.15;7.78;;;;;;;10.20;100.00;96628.59;5023080;28;21046;-63
2021/04/14 05:34:08;;;;;;;17.95;11.52;;;;;;;10.18;100.00;96631.75;5024891;28;20049;-63
2021/04/14 05:36:34;;;;;;;13.80;9.35;;;;;;;7.55;100.00;96189.91;5009398;28;20037;-65
2021/04/14 05:39:00;;;;;;;15.95;11.85;;;;;;;9.92;100.00;96564.59;5019790;28;20038;-63
2021/04/14 05:41:26;;;;;;;16.92;10.80;;;;;;;10.22;100.00;96627.06;5004261;28;20050;-63
2021/04/14 05:43:51;;;;;;;13.40;10.50;;;;;;;10.33;100.00;96625.22;5005205;28;20045;-63
2021/04/14 05:46:19;;;;;;;10.32;6.63;;;;;;;10.37;100.00;96617.72;5004693;28;20042;-63
2021/04/14 05:48:47;;;;;;;14.18;7.47;;;;;;;10.37;100.00;96630.78;5004678;28;20029;-63
2021/04/14 05:51:21;;;;;;;10.85;5.97;;;;;;;10.26;100.00;96619.59;5004141;28;20025;-63
2021/04/14 05:53:48;;;;;;;8.85;6.28;;;;;;;10.04;100.00;96590.06;5019711;28;20033;-62
2021/04/14 05:56:14;;;;;;;23.70;12.93;;;;;;;10.10;100.00;96638.38;5004209;28;20464;-64
2021/04/14 05:58:40;;;;;;;11.77;7.97;;;;;;;10.08;100.00;96606.72;5019217;28;20034;-63
2021/04/14 06:01:07;;;;;;;9.50;5.85;;;;;;;9.93;100.00;96578.06;5003664;28;20068;-63
2021/04/14 06:03:32;;;;;;;14.50;7.35;;;;;;;10.02;100.00;96614.53;5004701;28;20041;-63
2021/04/14 06:05:59;;;;;;;9.60;6.45;;;;;;;9.69;100.00;96603.44;5019104;28;20034;-63
2021/04/14 06:08:27;;;;;;;9.70;6.40;;;;;;;9.34;100.00;96611.25;5004432;28;20069;-63
2021/04/14 06:10:54;;;;;;;13.50;7.35;;;;;;;9.54;100.00;96615.50;5005082;28;20085;-62
2021/04/14 06:13:19;;;;;;;16.73;8.95;;;;;;;8.83;100.00;96532.72;5017060;28;20040;-68
2021/04/14 06:15:45;;;;;;;14.13;6.57;;;;;;;9.26;100.00;96603.22;5021299;28;20037;-67
2021/04/14 06:18:11;;;;;;;7.70;4.28;;;;;;;8.16;100.00;96462.63;5023008;28;20033;-70
2021/04/14 06:20:37;;;;;;;6.00;4.53;;;;;;;9.15;100.00;96619.66;5021117;28;20144;-63
2021/04/14 06:23:06;;;;;;;3.78;3.08;;;;;;;9.25;100.00;96607.94;5021866;28;20068;-67
2021/04/14 06:25:40;;;;;;;8.88;4.38;;;;;;;7.67;100.00;96381.81;5022890;28;20602;-69
2021/04/14 06:28:06;;;;;;;9.43;4.93;;;;;;;7.94;100.00;96444.13;5023484;28;20508;-70
2021/04/14 06:30:37;;;;;;;7.63;3.83;;;;;;;9.28;100.00;96615.50;5021799;28;20697;-65
2021/04/14 06:33:05;;;;;;;5.40;4.03;;;;;;;9.26;100.00;96581.94;5021733;28;20124;-64
2021/04/14 06:35:31;;;;;;;8.48;4.78;;;;;;;8.63;100.00;96442.91;5022141;28;20072;-67
2021/04/14 06:37:58;;;;;;;15.45;4.28;;;;;;;8.63;100.00;96493.38;5023416;28;20040;-69
2021/04/14 06:43:27;;;;;;;3.70;2.78;;;;;;;9.77;100.00;96632.78;5022721;28;20057;-69
2021/04/14 06:45:58;;;;;;;8.70;5.00;;;;;;;9.93;100.00;96594.66;5022083;28;20065;-65
2021/04/14 06:48:30;;;;;;;11.52;7.07;;;;;;;10.54;100.00;96633.72;5022967;28;20491;-64
2021/04/14 06:51:24;;;;;;;10.38;6.25;;;;;;;11.03;100.00;96640.94;5022348;28;20030;-65
2021/04/14 06:54:05;;;;;;;9.10;6.93;;;;;;;11.47;100.00;96638.91;5023538;28;20046;-64
2021/04/14 06:56:31;;;;;;;10.52;6.93;;;;;;;11.86;96.45;96651.06;5022453;28;20059;-66
2021/04/14 06:59:02;;;;;;;14.13;7.55;;;;;;;11.49;90.99;96550.56;5022099;28;20045;-66
2021/04/14 07:01:50;;;;;;;26.67;18.52;;;;;;;12.30;89.11;96648.91;5009442;28;20055;-67
2021/04/14 07:04:20;;;;;;;15.85;9.50;;;;;;;12.43;84.00;96644.59;5022860;28;20136;-69
2021/04/14 07:06:48;;;;;;;6.97;4.30;;;;;;;12.66;81.24;96655.38;5020820;28;20025;-67
2021/04/14 07:09:33;;;;;;;7.50;4.20;;;;;;;12.79;84.64;96649.03;5022283;28;20041;-67
2021/04/14 07:12:01;;;;;;;8.25;3.60;;;;;;;11.45;85.36;96455.44;5022456;28;20040;-66
2021/04/14 07:14:27;;;;;;;5.75;4.65;;;;;;;12.80;83.65;96659.00;5023112;28;20068;-68
2021/04/14 07:16:59;;;;;;;6.07;4.65;;;;;;;12.79;82.23;96654.59;5021032;28;20038;-68
2021/04/14 07:19:37;;;;;;;7.15;4.57;;;;;;;12.96;81.78;96659.38;5021825;28;20045;-68
2021/04/14 07:22:35;;;;;;;7.45;5.32;;;;;;;12.78;84.76;96603.00;5020884;28;20041;-67
2021/04/14 07:25:06;;;;;;;10.80;7.50;;;;;;;13.25;84.38;96649.13;5023288;28;20506;-68
2021/04/14 07:27:49;;;;;;;8.80;7.15;;;;;;;12.97;81.78;96627.63;5022159;28;20029;-65
2021/04/14 07:30:39;;;;;;;9.27;7.10;;;;;;;12.70;82.31;96606.94;5022365;28;20034;-67
2021/04/14 07:33:29;;;;;;;8.45;6.68;;;;;;;12.94;84.28;96694.34;5022665;28;20037;-67
2021/04/14 07:35:58;;;;;;;7.45;5.05;;;;;;;12.66;80.45;96656.16;5026087;28;20029;-65
2021/04/14 07:38:42;;;;;;;5.25;4.50;;;;;;;11.94;78.09;96531.38;5039884;28;20091;-65
2021/04/14 07:41:35;;;;;;;8.07;4.50;;;;;;;12.75;79.54;96648.25;5025511;28;20053;-68
2021/04/14 07:44:04;;;;;;;6.85;5.18;;;;;;;12.80;79.90;96647.88;5024302;28;20583;-68
2021/04/14 07:46:30;;;;;;;13.65;5.03;;;;;;;12.34;81.90;96654.47;5007049;28;20628;-65
2021/04/14 07:49:00;;;;;;;6.05;4.57;;;;;;;12.56;81.42;96651.38;5026214;28;20128;-68
2021/04/14 07:51:28;;;;;;;5.75;3.85;;;;;;;12.07;79.14;96556.78;5025589;28;20030;-69
2021/04/14 07:54:02;;;;;;;13.90;7.93;;;;;;;13.08;76.47;96645.16;5025398;28;20454;-67
2021/04/14 07:56:39;;;;;;;11.85;7.68;;;;;;;12.88;75.77;96615.31;5025573;28;20052;-67
2021/04/14 07:59:08;;;;;;;7.15;5.13;;;;;;;13.27;74.67;96653.09;5025378;28;20449;-67
2021/04/14 08:01:35;;;;;;;4.60;2.70;;;;;;;12.38;72.09;96538.63;5025559;28;20040;-66
2021/04/14 08:04:15;;;;;;;3.20;2.15;;;;;;;13.11;68.84;96632.44;5024690;28;20034;-69
2021/04/14 08:06:41;;;;;;;3.88;3.00;;;;;;;13.39;76.10;96638.78;5023212;28;20038;-69
2021/04/14 08:09:17;;;;;;;4.63;2.80;;;;;;;13.44;69.16;96632.81;5025168;28;20052;-68
2021/04/14 08:11:43;;;;;;;5.47;2.70;;;;;;;13.70;70.99;96643.50;5025425;28;20060;-66
2021/04/14 08:14:13;;;;;;;5.53;3.30;;;;;;;13.56;71.54;96564.84;5025715;28;20526;-66
2021/04/14 08:16:46;;;;;;;3.72;3.17;;;;;;;13.86;70.06;96618.06;5025194;28;20469;-65
2021/04/14 08:19:17;;;;;;;6.60;3.83;;;;;;;14.17;69.17;96638.63;5025167;28;20056;-67
2021/04/14 08:21:58;;;;;;;3.40;2.90;;;;;;;13.71;68.53;96544.13;5024666;28;20033;-65
2021/04/14 08:24:54;;;;;;;6.53;3.30;;;;;;;13.94;69.75;96558.34;5025118;28;20604;-70
2021/04/14 08:27:34;;;;;;;5.88;3.42;;;;;;;14.64;66.35;96612.97;5014556;28;20049;-67
2021/04/14 08:30:06;;;;;;;13.52;7.55;;;;;;;14.71;65.16;96629.66;5025913;28;20034;-70
2021/04/14 08:32:55;;;;;;;11.35;6.70;;;;;;;15.18;66.84;96626.16;5025980;28;20112;-69
2021/04/14 08:35:30;;;;;;;7.07;5.00;;;;;;;15.44;68.99;96614.41;5025063;28;20041;-65
2021/04/14 08:38:06;;;;;;;3.85;3.00;;;;;;;14.65;68.08;96530.94;5024503;28;20029;-65
2021/04/14 08:40:41;;;;;;;7.40;5.45;;;;;;;15.45;65.62;96613.19;5016639;28;20060;-66
2021/04/14 08:43:10;;;;;;;10.80;6.07;;;;;;;14.96;68.12;96525.09;5024043;28;20057;-66
2021/04/14 08:45:37;;;;;;;11.30;7.40;;;;;;;15.58;68.26;96575.19;5022296;28;20111;-66
2021/04/14 08:48:08;;;;;;;23.48;12.38;;;;;;;15.78;65.58;96612.47;5025534;28;20029;-64
2021/04/14 08:50:43;;;;;;;3.88;3.58;;;;;;;15.98;65.19;96601.50;5025110;28;20048;-66
2021/04/14 08:53:15;;;;;;;6.72;3.92;;;;;;;15.43;65.13;96536.66;5023720;28;20046;-64
2021/04/14 08:55:41;;;;;;;5.95;4.47;;;;;;;16.12;67.19;96640.47;5024501;28;20049;-64
2021/04/14 08:58:08;;;;;;;4.32;3.65;;;;;;;15.53;65.50;96491.88;5025099;28;20042;-63
2021/04/14 09:00:33;;;;;;;5.05;3.45;;;;;;;14.98;61.12;96432.66;5022340;28;20033;-65
2021/04/14 09:03:03;;;;;;;4.22;3.78;;;;;;;16.30;59.06;96590.72;5023143;28;20029;-65
2021/04/14 09:05:29;;;;;;;8.35;3.60;;;;;;;16.04;59.92;96569.91;5031623;28;20412;-69
2021/04/14 09:07:56;;;;;;;3.55;3.25;;;;;;;12.23;52.42;96086.00;5022559;28;20034;-64
2021/04/14 09:10:50;;;;;;;4.35;2.65;;;;;;;15.79;51.63;96591.72;5021440;28;20445;-67
2021/04/14 09:13:16;;;;;;;4.60;3.00;;;;;;;15.96;49.25;96576.78;5021057;28;20155;-64
2021/04/14 09:15:56;;;;;;;8.20;4.47;;;;;;;15.56;55.04;96479.88;5017843;28;20029;-70
2021/04/14 09:18:32;;;;;;;5.70;4.15;;;;;;;16.16;61.07;96580.53;5014594;28;20665;-61
2021/04/14 09:21:07;;;;;;;3.85;3.30;;;;;;;16.21;53.80;96571.69;5014822;28;20483;-64
2021/04/14 09:23:39;;;;;;;4.47;3.03;;;;;;;15.48;50.27;96444.09;5020575;28;20049;-63
2021/04/14 09:26:15;;;;;;;6.80;4.28;;;;;;;16.23;46.72;96571.25;5023157;28;20140;-61
2021/04/14 09:28:48;;;;;;;4.82;3.90;;;;;;;16.03;48.58;96626.97;5023788;28;20037;-63
2021/04/14 09:31:26;;;;;;;2.67;2.47;;;;;;;15.99;48.55;96581.53;5023137;28;20537;-64
2021/04/14 09:34:18;;;;;;;5.20;4.05;;;;;;;15.94;50.47;96537.28;5023947;28;20472;-62
2021/04/14 09:36:49;;;;;;;32.83;10.68;;;;;;;16.19;47.89;96557.31;5022454;28;20025;-62
2021/04/14 09:39:31;;;;;;;13.82;6.55;;;;;;;15.93;47.65;96481.84;5023554;28;20073;-63
2021/04/14 09:41:57;;;;;;;14.48;5.35;;;;;;;16.17;47.53;96503.06;5023518;28;20057;-62
2021/04/14 09:44:47;;;;;;;5.93;4.47;;;;;;;16.67;45.12;96547.91;5022434;28;20310;-63
2021/04/14 09:47:20;;;;;;;2.85;2.65;;;;;;;16.44;47.17;96490.72;5018167;28;20297;-63
2021/04/14 09:49:48;;;;;;;10.73;7.15;;;;;;;16.83;47.45;96539.69;5023392;28;20113;-63
2021/04/14 09:52:28;;;;;;;11.90;7.47;;;;;;;17.13;47.03;96542.38;5023466;28;20041;-63
2021/04/14 09:55:18;;;;;;;3.97;3.33;;;;;;;16.79;45.52;96427.06;5024461;28;20029;-63
2021/04/14 09:57:47;;;;;;;3.85;3.47;;;;;;;17.71;44.65;96555.78;5023285;28;20037;-63
2021/04/14 10:00:29;;;;;;;10.25;5.82;;;;;;;17.47;45.39;96534.63;5023581;28;20030;-63
2021/04/14 10:02:57;;;;;;;5.65;4.40;;;;;;;16.98;43.54;96445.88;5023901;28;20487;-63
2021/04/14 10:05:31;;;;;;;12.43;8.38;;;;;;;17.45;45.36;96531.47;5023827;28;20073;-63
2021/04/14 10:08:01;;;;;;;4.07;3.63;;;;;;;16.71;45.07;96414.41;5023841;28;20036;-63
2021/04/14 10:10:28;;;;;;;3.25;2.95;;;;;;;16.83;46.31;96518.09;5023901;28;20099;-62
2021/04/14 10:12:54;;;;;;;27.45;12.68;;;;;;;16.45;47.38;96461.53;5022349;28;20066;-64
2021/04/14 10:15:38;;;;;;;12.32;7.25;;;;;;;16.90;45.30;96528.38;5024055;28;20029;-61
2021/04/14 10:18:06;;;;;;;5.22;4.72;;;;;;;16.56;45.11;96504.13;5024357;28;20037;-62
2021/04/14 10:20:36;;;;;;;5.80;4.60;;;;;;;16.54;45.58;96528.91;5023394;28;20067;-64
2021/04/14 10:23:02;;;;;;;3.00;2.70;;;;;;;16.35;46.42;96532.34;5023785;28;20029;-62
2021/04/14 10:25:36;;;;;;;4.30;3.60;;;;;;;16.13;45.88;96553.41;5023489;28;20037;-62
2021/04/14 10:28:04;;;;;;;;;;;;;;;16.04;45.52;96528.00;5022814;28;20033;-63
2021/04/14 10:30:32;;;;;;;6.32;5.03;;;;;;;16.17;46.73;96542.97;5023197;28;20400;-62
2021/04/14 10:33:04;;;;;;;10.50;6.65;;;;;;;16.25;47.23;96538.06;5022212;28;20041;-62
2021/04/14 10:35:30;;;;;;;8.93;4.90;;;;;;;16.09;46.99;96488.38;5023425;28;20025;-60
2021/04/14 10:37:56;;;;;;;11.23;5.68;;;;;;;16.11;46.71;96472.00;5023263;28;20511;-62
2021/04/14 10:40:28;;;;;;;4.80;4.18;;;;;;;15.32;47.00;96341.38;5021389;28;20903;-62
2021/04/14 10:42:55;;;;;;;8.30;5.03;;;;;;;15.85;46.48;96391.75;5021604;28;20128;-61
2021/04/14 10:45:22;;;;;;;8.98;6.25;;;;;;;16.75;46.30;96532.59;5023056;28;20040;-61
2021/04/14 10:47:51;;;;;;;7.28;6.15;;;;;;;16.03;46.46;96395.06;5023357;28;20029;-61
2021/04/14 10:50:22;;;;;;;11.07;7.22;;;;;;;17.15;47.46;96523.94;5023066;28;20503;-61
2021/04/14 10:52:56;;;;;;;3.60;3.28;;;;;;;17.35;42.05;96521.22;5022681;28;20450;-61
2021/04/14 10:55:24;;;;;;;;;;;;;;;17.14;45.68;96513.19;5021472;28;20021;-63
2021/04/14 10:58:02;;;;;;;3.72;3.40;;;;;;;17.19;46.28;96521.09;5023993;28;19917;-62
2021/04/14 11:00:35;;;;;;;6.32;4.72;;;;;;;17.80;49.40;96513.97;5023015;28;20104;-62
2021/04/14 11:03:06;;;;;;;3.42;3.20;;;;;;;17.50;49.23;96500.16;5021357;28;20032;-64
2021/04/14 11:05:36;;;;;;;7.53;5.45;;;;;;;17.33;50.64;96460.03;5017451;28;20033;-62
2021/04/14 11:08:03;;;;;;;3.40;3.05;;;;;;;17.68;49.86;96511.81;5022674;28;20469;-61
2021/04/14 11:10:33;;;;;;;6.95;6.25;;;;;;;17.19;49.46;96389.53;5024187;28;20052;-62
2021/04/14 11:12:59;;;;;;;4.30;3.90;;;;;;;18.08;46.45;96502.22;5025991;28;20021;-63
2021/04/14 11:15:28;;;;;;;7.05;6.32;;;;;;;17.89;48.40;96480.59;5025969;28;20412;-65
2021/04/14 11:17:56;;;;;;;3.80;3.50;;;;;;;18.66;46.96;96503.34;5026608;28;20037;-63
2021/04/14 11:20:25;;;;;;;9.80;7.85;;;;;;;19.21;46.21;96511.63;5041461;28;20068;-62
2021/04/14 11:22:54;;;;;;;3.78;3.28;;;;;;;18.49;44.69;96510.97;5025224;28;20028;-62
2021/04/14 11:25:38;;;;;;;3.35;2.95;;;;;;;17.98;48.58;96508.81;5026774;28;20079;-62
2021/04/14 11:28:07;;;;;;;3.40;3.20;;;;;;;18.31;45.81;96504.09;5042147;28;20172;-61
2021/04/14 11:30:54;;;;;;;3.38;3.17;;;;;;;18.19;45.75;96508.38;5024764;28;20038;-60
2021/04/14 11:33:33;;;;;;;2.47;2.38;;;;;;;16.16;49.24;96495.88;5025630;28;20045;-62
2021/04/14 11:35:58;;;;;;;3.22;2.90;;;;;;;16.60;49.36;96468.50;5025491;28;20500;-62